createdAt,value
2018-09-28T00:00:49.591Z,0
2018-09-28T00:01:50.167Z,0
2018-09-28T00:02:50.740Z,0
2018-09-28T00:03:51.316Z,0
2018-09-28T00:04:51.890Z,0
2018-09-28T00:05:52.464Z,0
2018-09-28T00:06:53.038Z,0
2018-09-28T00:07:53.614Z,0
2018-09-28T00:08:54.188Z,0
2018-09-28T00:09:54.765Z,0
2018-09-28T00:10:55.338Z,0
2018-09-28T00:11:55.927Z,0
2018-09-28T00:12:56.515Z,0
2018-09-28T00:13:57.089Z,0
2018-09-28T00:14:57.669Z,0
2018-09-28T00:15:58.239Z,0
2018-09-28T00:16:58.813Z,0
2018-09-28T00:17:59.387Z,0
2018-09-28T00:18:59.962Z,0
2018-09-28T00:20:00.537Z,0
2018-09-28T00:21:01.112Z,0
2018-09-28T00:22:01.685Z,0
2018-09-28T00:23:02.260Z,0
2018-09-28T00:24:02.849Z,0
2018-09-28T00:25:03.424Z,0
2018-09-28T00:26:04.066Z,0
2018-09-28T00:27:04.591Z,0
2018-09-28T00:28:05.163Z,0
2018-09-28T00:29:05.737Z,0
2018-09-28T00:30:06.311Z,0
2018-09-28T00:31:06.885Z,0
2018-09-28T00:32:07.460Z,0
2018-09-28T00:33:08.051Z,0
2018-09-28T00:34:08.625Z,0
2018-09-28T00:35:09.198Z,0
2018-09-28T00:36:09.773Z,0
2018-09-28T00:37:10.348Z,0
2018-09-28T00:38:10.923Z,0
2018-09-28T00:39:11.497Z,0
2018-09-28T00:40:12.071Z,0
2018-09-28T00:41:12.647Z,0
2018-09-28T00:42:13.220Z,0
2018-09-28T00:43:13.798Z,0
2018-09-28T00:44:14.372Z,0
2018-09-28T00:45:14.942Z,0
2018-09-28T00:46:15.518Z,0
2018-09-28T00:47:16.091Z,0
2018-09-28T00:48:16.665Z,0
2018-09-28T00:49:17.243Z,0
2018-09-28T00:50:17.829Z,0
2018-09-28T00:51:18.425Z,0
2018-09-28T00:52:19.007Z,0
2018-09-28T00:53:19.598Z,0
2018-09-28T00:54:20.169Z,0
2018-09-28T00:55:20.744Z,0
2018-09-28T00:56:21.317Z,0
2018-09-28T00:57:21.891Z,0
2018-09-28T00:58:22.464Z,0
2018-09-28T00:59:23.053Z,0
2018-09-28T01:00:23.628Z,0
2018-09-28T01:01:24.205Z,0
2018-09-28T01:02:24.778Z,0
2018-09-28T01:03:25.352Z,0
2018-09-28T01:04:25.926Z,0
2018-09-28T01:05:26.501Z,0
2018-09-28T01:06:27.075Z,0
2018-09-28T01:07:27.653Z,0
2018-09-28T01:08:28.224Z,0
2018-09-28T01:09:28.799Z,0
2018-09-28T01:10:29.373Z,0
2018-09-28T01:11:29.946Z,0
2018-09-28T01:12:30.520Z,0
2018-09-28T01:13:31.094Z,0
2018-09-28T01:14:31.670Z,0
2018-09-28T01:15:32.244Z,0
2018-09-28T01:16:32.817Z,0
2018-09-28T01:17:33.392Z,0
2018-09-28T01:18:33.966Z,0
2018-09-28T01:19:34.555Z,0
2018-09-28T01:20:35.129Z,0
2018-09-28T01:21:35.702Z,0
2018-09-28T01:22:36.278Z,0
2018-09-28T01:23:36.862Z,0
2018-09-28T01:24:37.435Z,0
2018-09-28T01:25:38.009Z,0
2018-09-28T01:26:38.595Z,0
2018-09-28T01:27:39.170Z,0
2018-09-28T01:28:39.744Z,0
2018-09-28T01:29:40.319Z,0
2018-09-28T01:30:40.894Z,0
2018-09-28T01:31:41.481Z,0
2018-09-28T01:32:42.055Z,0
2018-09-28T01:33:42.642Z,0
2018-09-28T01:34:43.216Z,0
2018-09-28T01:35:43.791Z,0
2018-09-28T01:36:44.366Z,0
2018-09-28T01:37:44.950Z,0
2018-09-28T01:38:45.528Z,0
2018-09-28T01:39:46.102Z,0
2018-09-28T01:40:46.680Z,0
2018-09-28T01:41:47.267Z,0
2018-09-28T01:42:47.847Z,0
2018-09-28T01:43:48.417Z,0
2018-09-28T01:44:48.990Z,0
2018-09-28T01:45:49.566Z,0
2018-09-28T01:46:50.142Z,0
2018-09-28T01:47:50.715Z,0
2018-09-28T01:48:51.288Z,0
2018-09-28T01:49:51.862Z,0
2018-09-28T01:50:52.436Z,0
2018-09-28T01:51:53.011Z,0
2018-09-28T01:52:53.584Z,0
2018-09-28T01:53:54.157Z,0
2018-09-28T01:54:54.729Z,0
2018-09-28T01:55:55.303Z,0
2018-09-28T01:56:55.877Z,0
2018-09-28T01:57:56.450Z,0
2018-09-28T01:58:57.023Z,0
2018-09-28T01:59:57.595Z,0
2018-09-28T02:00:58.169Z,0
2018-09-28T02:01:58.744Z,0
2018-09-28T02:02:59.317Z,0
2018-09-28T02:03:59.904Z,0
2018-09-28T02:05:00.479Z,0
2018-09-28T02:06:01.053Z,0
2018-09-28T02:07:01.631Z,0
2018-09-28T02:08:02.202Z,0
2018-09-28T02:09:02.775Z,0
2018-09-28T02:10:03.364Z,0
2018-09-28T02:11:03.950Z,0
2018-09-28T02:12:04.536Z,0
2018-09-28T02:13:05.111Z,0
2018-09-28T02:14:05.686Z,0
2018-09-28T02:15:06.259Z,0
2018-09-28T02:16:06.833Z,0
2018-09-28T02:17:07.409Z,0
2018-09-28T02:18:07.981Z,0
2018-09-28T02:19:08.554Z,0
2018-09-28T02:20:09.128Z,0
2018-09-28T02:21:09.700Z,0
2018-09-28T02:22:10.272Z,0
2018-09-28T02:23:10.845Z,0
2018-09-28T02:24:11.419Z,0
2018-09-28T02:25:11.993Z,0
2018-09-28T02:26:12.567Z,0
2018-09-28T02:27:13.139Z,0
2018-09-28T02:28:13.712Z,0
2018-09-28T02:29:14.299Z,0
2018-09-28T02:30:14.872Z,0
2018-09-28T02:31:15.444Z,0
2018-09-28T02:32:16.018Z,0
2018-09-28T02:33:16.593Z,0
2018-09-28T02:34:17.166Z,0
2018-09-28T02:35:17.739Z,0
2018-09-28T02:36:18.312Z,0
2018-09-28T02:37:18.887Z,0
2018-09-28T02:38:19.463Z,0
2018-09-28T02:39:20.033Z,0
2018-09-28T02:40:20.605Z,0
2018-09-28T02:41:21.180Z,0
2018-09-28T02:42:21.752Z,0
2018-09-28T02:43:22.328Z,0
2018-09-28T02:44:22.901Z,0
2018-09-28T02:45:23.475Z,0
2018-09-28T02:46:24.048Z,0
2018-09-28T02:47:24.621Z,0
2018-09-28T02:48:25.195Z,0
2018-09-28T02:49:25.769Z,0
2018-09-28T02:50:26.348Z,0
2018-09-28T02:51:26.932Z,0
2018-09-28T02:52:27.504Z,0
2018-09-28T02:53:28.078Z,0
2018-09-28T02:54:28.650Z,0
2018-09-28T02:55:29.225Z,0
2018-09-28T02:56:29.801Z,0
2018-09-28T02:57:30.375Z,0
2018-09-28T02:58:30.949Z,0
2018-09-28T02:59:31.525Z,0
2018-09-28T03:00:32.098Z,0
2018-09-28T03:01:32.673Z,0
2018-09-28T03:02:33.258Z,0
2018-09-28T03:03:33.831Z,0
2018-09-28T03:04:34.404Z,0
2018-09-28T03:05:34.977Z,0
2018-09-28T03:06:35.551Z,0
2018-09-28T03:07:36.127Z,0
2018-09-28T03:08:36.699Z,0
2018-09-28T03:09:37.287Z,0
2018-09-28T03:10:37.864Z,0
2018-09-28T03:11:38.433Z,0
2018-09-28T03:12:39.019Z,0
2018-09-28T03:13:39.583Z,0
2018-09-28T03:14:40.162Z,0
2018-09-28T03:15:40.730Z,0
2018-09-28T03:16:41.321Z,0
2018-09-28T03:17:41.892Z,0
2018-09-28T03:18:42.465Z,0
2018-09-28T03:19:43.051Z,0
2018-09-28T03:20:43.626Z,0
2018-09-28T03:21:44.211Z,0
2018-09-28T03:22:44.791Z,0
2018-09-28T03:23:45.357Z,0
2018-09-28T03:24:45.932Z,0
2018-09-28T03:25:46.565Z,0
2018-09-28T03:26:47.076Z,0
2018-09-28T03:27:47.651Z,0
2018-09-28T03:28:48.225Z,0
2018-09-28T03:29:48.798Z,0
2018-09-28T03:30:49.377Z,0
2018-09-28T03:31:49.961Z,0
2018-09-28T03:32:50.546Z,0
2018-09-28T03:33:51.119Z,0
2018-09-28T03:34:51.695Z,0
2018-09-28T03:35:52.269Z,0
2018-09-28T03:36:52.844Z,0
2018-09-28T03:37:53.417Z,0
2018-09-28T03:38:53.993Z,0
2018-09-28T03:39:54.568Z,0
2018-09-28T03:40:55.140Z,0
2018-09-28T03:41:55.714Z,0
2018-09-28T03:42:56.289Z,0
2018-09-28T03:43:56.860Z,0
2018-09-28T03:44:57.437Z,0
2018-09-28T03:45:58.010Z,0
2018-09-28T03:46:58.590Z,0
2018-09-28T03:47:59.156Z,0
2018-09-28T03:48:59.731Z,0
2018-09-28T03:50:00.320Z,0
2018-09-28T03:51:00.904Z,0
2018-09-28T03:52:01.476Z,0
2018-09-28T03:53:02.049Z,0
2018-09-28T03:54:02.626Z,0
2018-09-28T03:55:03.198Z,0
2018-09-28T03:56:03.772Z,0
2018-09-28T03:57:04.346Z,0
2018-09-28T03:58:04.923Z,0
2018-09-28T03:59:05.504Z,0
2018-09-28T04:00:06.079Z,0
2018-09-28T04:01:06.667Z,0
2018-09-28T04:02:07.240Z,0
2018-09-28T04:03:07.825Z,0
2018-09-28T04:04:08.398Z,0
2018-09-28T04:05:08.973Z,0
2018-09-28T04:06:09.546Z,0
2018-09-28T04:07:10.121Z,0
2018-09-28T04:08:10.693Z,0
2018-09-28T04:09:11.266Z,0
2018-09-28T04:10:11.842Z,0
2018-09-28T04:11:12.416Z,0
2018-09-28T04:12:12.990Z,0
2018-09-28T04:13:13.562Z,0
2018-09-28T04:14:14.135Z,0
2018-09-28T04:15:14.739Z,0
2018-09-28T04:16:15.290Z,0
2018-09-28T04:17:15.863Z,0
2018-09-28T04:18:16.438Z,0
2018-09-28T04:19:17.011Z,0
2018-09-28T04:20:17.583Z,0
2018-09-28T04:21:18.169Z,0
2018-09-28T04:22:18.751Z,0
2018-09-28T04:23:19.318Z,0
2018-09-28T04:24:19.892Z,0
2018-09-28T04:25:20.464Z,0
2018-09-28T04:26:21.039Z,0
2018-09-28T04:27:21.614Z,0
2018-09-28T04:28:22.188Z,0
2018-09-28T04:29:22.761Z,0
2018-09-28T04:30:23.335Z,0
2018-09-28T04:31:23.911Z,0
2018-09-28T04:32:24.482Z,0
2018-09-28T04:33:25.059Z,0
2018-09-28T04:34:25.644Z,0
2018-09-28T04:35:26.219Z,0
2018-09-28T04:36:26.793Z,0
2018-09-28T04:37:27.365Z,0
2018-09-28T04:38:27.937Z,0
2018-09-28T04:39:28.509Z,0
2018-09-28T04:40:29.085Z,0
2018-09-28T04:41:29.657Z,0
2018-09-28T04:42:30.234Z,0
2018-09-28T04:43:30.804Z,0
2018-09-28T04:44:31.377Z,0
2018-09-28T04:45:31.989Z,0
2018-09-28T04:46:32.523Z,0
2018-09-28T04:47:33.099Z,0
2018-09-28T04:48:33.675Z,0
2018-09-28T04:49:34.244Z,0
2018-09-28T04:50:34.818Z,0
2018-09-28T04:51:35.394Z,0
2018-09-28T04:52:35.986Z,0
2018-09-28T04:53:36.558Z,0
2018-09-28T04:54:37.135Z,0
2018-09-28T04:55:37.705Z,0
2018-09-28T04:56:38.283Z,0
2018-09-28T04:57:38.868Z,0
2018-09-28T04:58:39.442Z,0
2018-09-28T04:59:40.017Z,0
2018-09-28T05:00:40.591Z,0
2018-09-28T05:01:41.166Z,0
2018-09-28T05:02:41.752Z,0
2018-09-28T05:03:42.325Z,0
2018-09-28T05:04:42.899Z,0
2018-09-28T05:05:43.474Z,0
2018-09-28T05:06:44.047Z,0
2018-09-28T05:07:44.620Z,0
2018-09-28T05:08:45.193Z,0
2018-09-28T05:09:45.766Z,0
2018-09-28T05:10:46.341Z,0
2018-09-28T05:11:46.916Z,0
2018-09-28T05:12:47.489Z,0
2018-09-28T05:13:48.062Z,0
2018-09-28T05:14:48.636Z,0
2018-09-28T05:15:49.223Z,0
2018-09-28T05:16:49.795Z,0
2018-09-28T05:17:50.369Z,0
2018-09-28T05:18:50.943Z,0
2018-09-28T05:19:51.515Z,0
2018-09-28T05:20:52.089Z,0
2018-09-28T05:21:52.660Z,0
2018-09-28T05:22:53.234Z,0
2018-09-28T05:23:53.806Z,0
2018-09-28T05:24:54.398Z,0
2018-09-28T05:25:54.968Z,0
2018-09-28T05:26:55.542Z,0
2018-09-28T05:27:56.120Z,0
2018-09-28T05:28:56.704Z,0
2018-09-28T05:29:57.281Z,0
2018-09-28T05:30:57.904Z,0
2018-09-28T05:31:58.442Z,0
2018-09-28T05:32:59.275Z,0
2018-09-28T05:33:59.585Z,0
2018-09-28T05:35:00.160Z,0
2018-09-28T05:36:00.735Z,0
2018-09-28T05:37:01.319Z,0
2018-09-28T05:38:01.898Z,0
2018-09-28T05:39:02.487Z,0
2018-09-28T05:40:03.065Z,0
2018-09-28T05:41:03.636Z,0
2018-09-28T05:42:04.211Z,0
2018-09-28T05:43:04.792Z,0
2018-09-28T05:44:05.377Z,0
2018-09-28T05:45:05.965Z,0
2018-09-28T05:46:06.539Z,0
2018-09-28T05:47:07.124Z,0
2018-09-28T05:48:07.700Z,0
2018-09-28T05:49:08.275Z,0
2018-09-28T05:50:08.849Z,0
2018-09-28T05:51:09.425Z,0
2018-09-28T05:52:11.001Z,0
2018-09-28T05:53:11.575Z,0
2018-09-28T05:54:12.149Z,0
2018-09-28T05:55:12.724Z,0
2018-09-28T05:56:13.299Z,0
2018-09-28T05:57:13.877Z,0
2018-09-28T05:58:14.449Z,0
2018-09-28T05:59:15.024Z,0
2018-09-28T06:00:15.599Z,0
2018-09-28T06:01:16.188Z,0
2018-09-28T06:02:16.760Z,0
2018-09-28T06:03:17.336Z,0
2018-09-28T06:04:17.910Z,0
2018-09-28T06:05:18.500Z,0
2018-09-28T06:06:19.073Z,0
2018-09-28T06:07:19.660Z,0
2018-09-28T06:08:20.238Z,0
2018-09-28T06:09:20.813Z,0
2018-09-28T06:10:21.387Z,0
2018-09-28T06:11:21.962Z,0
2018-09-28T06:12:22.538Z,0
2018-09-28T06:13:23.119Z,0
2018-09-28T06:14:23.688Z,0
2018-09-28T06:15:24.276Z,0
2018-09-28T06:16:24.851Z,0
2018-09-28T06:17:25.426Z,0
2018-09-28T06:18:26.015Z,0
2018-09-28T06:19:26.577Z,0
2018-09-28T06:20:27.173Z,0
2018-09-28T06:21:27.735Z,0
2018-09-28T06:22:28.323Z,0
2018-09-28T06:23:28.897Z,0
2018-09-28T06:24:29.473Z,0
2018-09-28T06:25:30.047Z,0
2018-09-28T06:26:30.635Z,0
2018-09-28T06:27:31.216Z,0
2018-09-28T06:28:31.800Z,0
2018-09-28T06:29:32.374Z,0
2018-09-28T06:30:32.948Z,0
2018-09-28T06:31:33.527Z,0
2018-09-28T06:32:34.113Z,0
2018-09-28T06:33:34.687Z,0
2018-09-28T06:34:35.263Z,0
2018-09-28T06:35:35.932Z,0
2018-09-28T06:36:36.414Z,0
2018-09-28T06:37:36.989Z,0
2018-09-28T06:38:37.564Z,0
2018-09-28T06:39:38.145Z,0
2018-09-28T06:40:38.716Z,0
2018-09-28T06:41:39.303Z,0
2018-09-28T06:42:39.862Z,0
2018-09-28T06:43:40.436Z,0
2018-09-28T06:44:41.089Z,0
2018-09-28T06:45:41.600Z,0
2018-09-28T06:46:42.175Z,0
2018-09-28T06:47:42.793Z,0
2018-09-28T06:48:43.325Z,0
2018-09-28T06:49:43.901Z,0
2018-09-28T06:50:44.490Z,0
2018-09-28T06:51:45.065Z,0
2018-09-28T06:52:45.640Z,0
2018-09-28T06:53:46.241Z,0
2018-09-28T06:55:31.051Z,0
2018-09-28T06:56:31.626Z,5
2018-09-28T06:57:32.207Z,5
2018-09-28T06:58:32.792Z,5
2018-09-28T06:59:33.367Z,0
2018-09-28T07:00:33.956Z,0
2018-09-28T07:01:34.533Z,0
2018-09-28T07:02:35.120Z,0
2018-09-28T07:03:35.697Z,5
2018-09-28T07:04:36.273Z,5
2018-09-28T07:05:36.849Z,5
2018-09-28T07:06:37.426Z,5
2018-09-28T07:07:38.000Z,5
2018-09-28T07:08:38.575Z,5
2018-09-28T07:09:39.152Z,5
2018-09-28T07:10:39.727Z,5
2018-09-28T07:11:40.316Z,5
2018-09-28T07:12:40.878Z,5
2018-09-28T07:13:41.454Z,5
2018-09-28T07:14:42.030Z,5
2018-09-28T07:15:42.606Z,5
2018-09-28T07:16:43.305Z,5
2018-09-28T07:17:43.809Z,5
2018-09-28T07:18:44.354Z,5
2018-09-28T07:19:44.930Z,5
2018-09-28T07:20:45.505Z,5
2018-09-28T07:21:46.085Z,5
2018-09-28T07:22:46.671Z,5
2018-09-28T07:23:47.282Z,5
2018-09-28T07:24:47.891Z,5
2018-09-28T07:25:48.409Z,5
2018-09-28T07:26:48.996Z,5
2018-09-28T07:27:49.573Z,5
2018-09-28T07:28:50.148Z,5
2018-09-28T07:29:50.774Z,5
2018-09-28T07:30:51.313Z,5
2018-09-28T07:31:51.885Z,5
2018-09-28T07:32:52.462Z,10
2018-09-28T07:33:53.042Z,10
2018-09-28T07:34:53.621Z,10
2018-09-28T07:35:54.232Z,10
2018-09-28T07:36:54.841Z,10
2018-09-28T07:37:55.355Z,10
2018-09-28T07:38:55.946Z,10
2018-09-28T07:39:56.523Z,10
2018-09-28T07:40:57.100Z,10
2018-09-28T07:41:57.800Z,10
2018-09-28T07:42:58.253Z,10
2018-09-28T07:43:58.845Z,15
2018-09-28T07:44:59.421Z,15
2018-09-28T07:45:59.998Z,15
2018-09-28T07:47:00.574Z,15
2018-09-28T07:48:01.155Z,10
2018-09-28T07:49:01.800Z,10
2018-09-28T07:50:02.325Z,10
2018-09-28T07:51:02.908Z,10
2018-09-28T07:52:03.480Z,10
2018-09-28T07:53:04.057Z,10
2018-09-28T07:54:04.633Z,10
2018-09-28T07:55:05.210Z,10
2018-09-28T07:56:05.788Z,10
2018-09-28T07:57:06.376Z,10
2018-09-28T07:58:06.952Z,10
2018-09-28T07:59:07.530Z,10
2018-09-28T08:00:08.119Z,10
2018-09-28T08:01:08.696Z,10
2018-09-28T08:02:09.272Z,10
2018-09-28T08:03:09.850Z,10
2018-09-28T08:04:10.428Z,15
2018-09-28T08:05:11.007Z,15
2018-09-28T08:06:11.594Z,10
2018-09-28T08:07:12.173Z,10
2018-09-28T08:08:12.753Z,10
2018-09-28T08:09:13.326Z,10
2018-09-28T08:10:13.917Z,10
2018-09-28T08:11:14.509Z,10
2018-09-28T08:12:15.085Z,10
2018-09-28T08:13:15.676Z,10
2018-09-28T08:14:16.253Z,10
2018-09-28T08:15:16.830Z,10
2018-09-28T08:16:17.408Z,10
2018-09-28T08:17:17.985Z,10
2018-09-28T08:18:18.562Z,10
2018-09-28T08:19:19.139Z,10
2018-09-28T08:20:19.715Z,10
2018-09-28T08:21:20.305Z,10
2018-09-28T08:22:20.886Z,10
2018-09-28T08:23:21.523Z,10
2018-09-28T08:24:22.036Z,10
2018-09-28T08:25:22.613Z,10
2018-09-28T08:26:23.191Z,10
2018-09-28T08:27:23.767Z,10
2018-09-28T08:28:24.343Z,15
2018-09-28T08:29:24.920Z,15
2018-09-28T08:30:25.572Z,15
2018-09-28T08:31:26.089Z,15
2018-09-28T08:32:26.664Z,15
2018-09-28T08:33:27.241Z,15
2018-09-28T08:34:27.823Z,15
2018-09-28T08:35:28.395Z,15
2018-09-28T08:36:29.117Z,15
2018-09-28T08:37:29.550Z,15
2018-09-28T08:38:30.127Z,15
2018-09-28T08:39:30.703Z,20
2018-09-28T08:40:31.283Z,20
2018-09-28T08:41:31.871Z,15
2018-09-28T08:42:32.447Z,15
2018-09-28T08:43:33.048Z,15
2018-09-28T08:44:33.608Z,15
2018-09-28T08:45:34.187Z,20
2018-09-28T08:46:34.762Z,20
2018-09-28T08:47:35.339Z,20
2018-09-28T08:48:35.926Z,20
2018-09-28T08:49:36.502Z,20
2018-09-28T08:50:37.082Z,15
2018-09-28T08:51:37.662Z,15
2018-09-28T08:52:38.235Z,15
2018-09-28T08:53:38.825Z,15
2018-09-28T08:54:39.415Z,15
2018-09-28T08:55:39.992Z,15
2018-09-28T08:56:40.585Z,15
2018-09-28T08:57:41.163Z,15
2018-09-28T08:58:41.738Z,15
2018-09-28T08:59:42.313Z,15
2018-09-28T09:00:42.892Z,15
2018-09-28T09:01:43.468Z,15
2018-09-28T09:02:44.047Z,15
2018-09-28T09:03:44.624Z,15
2018-09-28T09:04:45.200Z,15
2018-09-28T09:05:45.778Z,15
2018-09-28T09:06:46.355Z,15
2018-09-28T09:07:46.932Z,15
2018-09-28T09:08:47.509Z,15
2018-09-28T09:09:48.100Z,15
2018-09-28T09:10:48.680Z,15
2018-09-28T09:11:49.257Z,15
2018-09-28T09:12:49.834Z,15
2018-09-28T09:13:50.412Z,15
2018-09-28T09:14:50.988Z,15
2018-09-28T09:15:51.568Z,15
2018-09-28T09:16:52.143Z,15
2018-09-28T09:17:52.816Z,15
2018-09-28T09:18:53.297Z,15
2018-09-28T09:19:53.875Z,15
2018-09-28T09:20:54.452Z,15
2018-09-28T09:21:55.030Z,15
2018-09-28T09:22:55.609Z,15
2018-09-28T09:23:56.207Z,15
2018-09-28T09:24:56.785Z,15
2018-09-28T09:25:57.363Z,15
2018-09-28T09:26:57.942Z,15
2018-09-28T09:27:58.520Z,15
2018-09-28T09:28:59.096Z,15
2018-09-28T09:29:59.676Z,15
2018-09-28T09:31:00.254Z,15
2018-09-28T09:32:00.829Z,15
2018-09-28T09:33:01.407Z,15
2018-09-28T09:34:01.985Z,15
2018-09-28T09:35:02.574Z,20
2018-09-28T09:36:03.154Z,20
2018-09-28T09:37:03.741Z,20
2018-09-28T09:38:04.334Z,20
2018-09-28T09:39:04.912Z,20
2018-09-28T09:40:05.488Z,20
2018-09-28T09:41:06.066Z,20
2018-09-28T09:42:06.643Z,20
2018-09-28T09:43:07.265Z,20
2018-09-28T09:44:07.801Z,20
2018-09-28T09:45:08.377Z,20
2018-09-28T09:46:08.954Z,20
2018-09-28T09:47:09.545Z,20
2018-09-28T09:48:10.136Z,20
2018-09-28T09:49:10.715Z,20
2018-09-28T09:50:11.291Z,20
2018-09-28T09:51:11.870Z,20
2018-09-28T09:52:12.446Z,20
2018-09-28T09:53:13.023Z,20
2018-09-28T09:54:13.599Z,20
2018-09-28T09:55:14.177Z,20
2018-09-28T09:56:14.754Z,20
2018-09-28T09:57:15.330Z,20
2018-09-28T09:58:15.970Z,20
2018-09-28T09:59:16.491Z,20
2018-09-28T10:00:17.068Z,20
2018-09-28T10:01:17.659Z,20
2018-09-28T10:02:18.239Z,20
2018-09-28T10:03:18.815Z,20
2018-09-28T10:04:19.394Z,20
2018-09-28T10:05:19.983Z,20
2018-09-28T10:06:20.562Z,20
2018-09-28T10:07:21.140Z,20
2018-09-28T10:08:21.716Z,20
2018-09-28T10:09:22.295Z,20
2018-09-28T10:10:22.872Z,20
2018-09-28T10:11:23.451Z,20
2018-09-28T10:12:24.120Z,20
2018-09-28T10:13:24.619Z,20
2018-09-28T10:14:25.195Z,20
2018-09-28T10:15:25.772Z,20
2018-09-28T10:16:26.351Z,20
2018-09-28T10:17:26.929Z,20
2018-09-28T10:18:27.507Z,20
2018-09-28T10:19:28.089Z,20
2018-09-28T10:20:28.662Z,20
2018-09-28T10:21:29.241Z,20
2018-09-28T10:22:29.824Z,20
2018-09-28T10:23:30.413Z,20
2018-09-28T10:24:30.988Z,20
2018-09-28T10:25:31.570Z,20
2018-09-28T10:26:32.146Z,20
2018-09-28T10:27:32.814Z,20
2018-09-28T10:28:33.351Z,20
2018-09-28T10:29:33.889Z,20
2018-09-28T10:30:34.477Z,20
2018-09-28T10:31:35.062Z,20
2018-09-28T10:32:35.639Z,20
2018-09-28T10:33:36.271Z,20
2018-09-28T10:34:36.847Z,20
2018-09-28T10:35:37.374Z,30
2018-09-28T10:36:37.952Z,30
2018-09-28T10:37:38.529Z,25
2018-09-28T10:38:39.106Z,30
2018-09-28T10:39:39.741Z,30
2018-09-28T10:40:40.495Z,30
2018-09-28T10:41:40.838Z,30
2018-09-28T10:42:41.417Z,30
2018-09-28T10:43:41.996Z,30
2018-09-28T10:44:42.579Z,25
2018-09-28T10:45:43.232Z,30
2018-09-28T10:46:43.841Z,30
2018-09-28T10:47:44.319Z,30
2018-09-28T10:48:44.911Z,35
2018-09-28T10:49:45.488Z,35
2018-09-28T10:50:46.072Z,35
2018-09-28T10:51:46.738Z,30
2018-09-28T10:52:47.400Z,35
2018-09-28T10:53:47.808Z,30
2018-09-28T10:54:48.385Z,30
2018-09-28T10:55:48.983Z,30
2018-09-28T10:56:49.568Z,30
2018-09-28T10:57:50.147Z,30
2018-09-28T10:58:50.799Z,30
2018-09-28T10:59:51.303Z,30
2018-09-28T11:00:51.883Z,30
2018-09-28T11:01:52.461Z,30
2018-09-28T11:02:53.038Z,30
2018-09-28T11:03:53.628Z,30
2018-09-28T11:04:54.195Z,30
2018-09-28T11:05:54.774Z,30
2018-09-28T11:06:55.354Z,30
2018-09-28T11:07:55.935Z,30
2018-09-28T11:08:56.520Z,30
2018-09-28T11:09:57.091Z,30
2018-09-28T11:10:57.669Z,30
2018-09-28T11:11:58.261Z,25
2018-09-28T11:12:58.840Z,25
2018-09-28T11:13:59.422Z,20
2018-09-28T11:15:00.002Z,15
2018-09-28T11:16:00.579Z,20
2018-09-28T11:17:01.159Z,20
2018-09-28T11:18:01.738Z,20
2018-09-28T11:19:02.397Z,20
2018-09-28T11:20:02.894Z,15
2018-09-28T11:21:03.472Z,15
2018-09-28T11:22:04.056Z,15
2018-09-28T11:23:04.646Z,15
2018-09-28T11:24:05.226Z,10
2018-09-28T11:25:05.806Z,10
2018-09-28T11:26:06.382Z,10
2018-09-28T11:27:06.962Z,10
2018-09-28T11:28:07.551Z,10
2018-09-28T11:29:08.129Z,10
2018-09-28T11:30:08.710Z,15
2018-09-28T11:31:09.287Z,15
2018-09-28T11:32:09.865Z,15
2018-09-28T11:33:10.486Z,15
2018-09-28T11:34:11.036Z,15
2018-09-28T11:35:11.615Z,15
2018-09-28T11:36:12.193Z,15
2018-09-28T11:37:12.773Z,15
2018-09-28T11:38:13.352Z,15
2018-09-28T11:39:13.965Z,15
2018-09-28T11:40:14.524Z,15
2018-09-28T11:41:15.102Z,15
2018-09-28T11:42:15.681Z,15
2018-09-28T11:43:16.294Z,20
2018-09-28T11:44:16.858Z,20
2018-09-28T11:45:17.495Z,20
2018-09-28T11:46:18.033Z,25
2018-09-28T11:47:18.610Z,25
2018-09-28T11:48:19.190Z,25
2018-09-28T11:49:19.770Z,30
2018-09-28T11:50:20.347Z,30
2018-09-28T11:51:20.971Z,20
2018-09-28T11:52:21.505Z,25
2018-09-28T11:53:22.084Z,25
2018-09-28T11:54:22.680Z,25
2018-09-28T11:55:23.254Z,25
2018-09-28T11:56:23.833Z,25
2018-09-28T11:57:24.482Z,25
2018-09-28T11:58:24.997Z,20
2018-09-28T11:59:25.576Z,25
2018-09-28T12:00:26.154Z,25
2018-09-28T12:01:26.733Z,25
2018-09-28T12:02:27.311Z,25
2018-09-28T12:03:27.962Z,25
2018-09-28T12:04:28.467Z,25
2018-09-28T12:05:29.051Z,25
2018-09-28T12:06:29.729Z,25
2018-09-28T12:07:30.201Z,25
2018-09-28T12:08:30.779Z,25
2018-09-28T12:09:31.369Z,25
2018-09-28T12:10:31.940Z,25
2018-09-28T12:11:32.568Z,25
2018-09-28T12:12:33.202Z,25
2018-09-28T12:13:33.814Z,25
2018-09-28T12:14:34.304Z,15
2018-09-28T12:15:34.916Z,25
2018-09-28T12:16:35.463Z,25
2018-09-28T12:17:36.055Z,25
2018-09-28T12:18:36.691Z,20
2018-09-28T12:19:37.213Z,25
2018-09-28T12:20:37.792Z,25
2018-09-28T12:21:38.375Z,25
2018-09-28T12:22:38.950Z,25
2018-09-28T12:23:39.533Z,25
2018-09-28T12:24:40.178Z,25
2018-09-28T12:25:40.700Z,20
2018-09-28T12:26:41.286Z,25
2018-09-28T12:27:41.900Z,25
2018-09-28T12:28:42.437Z,25
2018-09-28T12:29:43.034Z,25
2018-09-28T12:30:43.613Z,25
2018-09-28T12:31:44.189Z,25
2018-09-28T12:32:44.768Z,25
2018-09-28T12:33:45.438Z,25
2018-09-28T12:34:45.935Z,25
2018-09-28T12:35:46.516Z,15
2018-09-28T12:36:47.130Z,25
2018-09-28T12:37:47.686Z,25
2018-09-28T12:38:48.265Z,25
2018-09-28T12:39:48.985Z,25
2018-09-28T12:40:49.422Z,30
2018-09-28T12:41:50.000Z,30
2018-09-28T12:42:50.683Z,35
2018-09-28T12:43:51.160Z,35
2018-09-28T12:44:51.792Z,35
2018-09-28T12:45:52.319Z,35
2018-09-28T12:46:52.900Z,30
2018-09-28T12:47:53.491Z,35
2018-09-28T12:48:54.068Z,30
2018-09-28T12:49:54.666Z,20
2018-09-28T12:50:55.247Z,15
2018-09-28T12:51:55.824Z,15
2018-09-28T12:52:56.403Z,15
2018-09-28T12:53:56.982Z,15
2018-09-28T12:54:57.562Z,15
2018-09-28T12:55:58.140Z,15
2018-09-28T12:56:58.719Z,15
2018-09-28T12:57:59.298Z,15
2018-09-28T12:58:59.890Z,15
2018-09-28T13:00:00.476Z,15
2018-09-28T13:01:01.119Z,15
2018-09-28T13:02:01.627Z,15
2018-09-28T13:03:02.206Z,15
2018-09-28T13:04:02.787Z,15
2018-09-28T13:05:03.382Z,15
2018-09-28T13:06:03.964Z,15
2018-09-28T13:07:04.540Z,15
2018-09-28T13:08:05.118Z,15
2018-09-28T13:09:05.699Z,15
2018-09-28T13:10:06.276Z,15
2018-09-28T13:11:06.852Z,25
2018-09-28T13:12:07.453Z,25
2018-09-28T13:13:08.010Z,25
2018-09-28T13:14:08.611Z,25
2018-09-28T13:15:09.324Z,30
2018-09-28T13:16:09.746Z,30
2018-09-28T13:17:10.322Z,30
2018-09-28T13:18:10.909Z,30
2018-09-28T13:19:11.494Z,25
2018-09-28T13:20:12.106Z,20
2018-09-28T13:21:12.669Z,25
2018-09-28T13:22:13.243Z,15
2018-09-28T13:23:13.836Z,15
2018-09-28T13:24:14.427Z,15
2018-09-28T13:25:15.010Z,15
2018-09-28T13:26:15.665Z,15
2018-09-28T13:27:16.185Z,15
2018-09-28T13:28:16.765Z,15
2018-09-28T13:29:17.350Z,15
2018-09-28T13:30:17.988Z,15
2018-09-28T13:31:18.516Z,15
2018-09-28T13:32:19.125Z,15
2018-09-28T13:33:19.675Z,15
2018-09-28T13:34:20.252Z,15
2018-09-28T13:35:20.832Z,15
2018-09-28T13:36:21.460Z,15
2018-09-28T13:37:21.999Z,15
2018-09-28T13:38:22.634Z,15
2018-09-28T13:39:23.156Z,15
2018-09-28T13:40:23.734Z,20
2018-09-28T13:41:24.314Z,20
2018-09-28T13:42:24.975Z,20
2018-09-28T13:43:25.484Z,15
2018-09-28T13:44:26.142Z,15
2018-09-28T13:45:26.650Z,15
2018-09-28T13:46:27.314Z,15
2018-09-28T13:47:27.811Z,15
2018-09-28T13:48:28.544Z,15
2018-09-28T13:49:28.977Z,20
2018-09-28T13:50:29.559Z,25
2018-09-28T13:51:30.134Z,25
2018-09-28T13:52:30.752Z,25
2018-09-28T13:53:31.318Z,25
2018-09-28T13:54:31.914Z,25
2018-09-28T13:55:32.449Z,25
2018-09-28T13:56:33.031Z,25
2018-09-28T13:57:33.618Z,25
2018-09-28T13:58:34.200Z,25
2018-09-28T13:59:34.777Z,25
2018-09-28T14:00:35.382Z,25
2018-09-28T14:01:35.947Z,25
2018-09-28T14:02:36.561Z,25
2018-09-28T14:03:37.104Z,25
2018-09-28T14:04:37.701Z,25
2018-09-28T14:05:38.260Z,25
2018-09-28T14:06:38.906Z,25
2018-09-28T14:07:39.421Z,25
2018-09-28T14:08:40.057Z,25
2018-09-28T14:09:40.577Z,25
2018-09-28T14:10:41.183Z,25
2018-09-28T14:11:41.760Z,25
2018-09-28T14:12:42.376Z,25
2018-09-28T14:13:42.932Z,25
2018-09-28T14:14:43.577Z,20
2018-09-28T14:15:44.099Z,20
2018-09-28T14:16:44.684Z,25
2018-09-28T14:17:45.256Z,25
2018-09-28T14:18:45.940Z,25
2018-09-28T14:19:46.414Z,25
2018-09-28T14:20:47.066Z,25
2018-09-28T14:21:47.572Z,25
2018-09-28T14:22:48.211Z,25
2018-09-28T14:23:48.730Z,25
2018-09-28T14:24:49.438Z,25
2018-09-28T14:25:49.886Z,25
2018-09-28T14:26:50.530Z,25
2018-09-28T14:27:51.061Z,25
2018-09-28T14:28:51.682Z,25
2018-09-28T14:29:52.204Z,25
2018-09-28T14:30:52.781Z,25
2018-09-28T14:31:53.359Z,25
2018-09-28T14:32:53.939Z,25
2018-09-28T14:33:54.518Z,25
2018-09-28T14:34:55.096Z,30
2018-09-28T14:35:55.683Z,30
2018-09-28T14:36:56.254Z,30
2018-09-28T14:37:56.846Z,30
2018-09-28T14:38:57.426Z,30
2018-09-28T14:39:58.008Z,25
2018-09-28T14:40:58.584Z,15